createdAt,value
2023-05-03T00:02:20.787Z,3.55
2023-05-03T00:04:48.458Z,3.45
2023-05-03T00:07:18.451Z,4.18
2023-05-03T00:10:06.091Z,3.20
2023-05-03T00:12:32.822Z,3.80
2023-05-03T00:14:59.599Z,3.42
2023-05-03T00:17:46.541Z,3.75
2023-05-03T00:20:13.388Z,3.05
2023-05-03T00:22:40.137Z,3.92
2023-05-03T00:25:06.891Z,3.33
2023-05-03T00:27:54.508Z,4.03
2023-05-03T00:30:21.459Z,3.97
2023-05-03T00:32:48.544Z,4.15
2023-05-03T00:35:15.357Z,3.78
2023-05-03T00:40:46.450Z,4.03
2023-05-03T00:43:13.718Z,3.97
2023-05-03T00:45:40.427Z,4.07
2023-05-03T00:48:31.323Z,3.30
2023-05-03T00:50:59.173Z,3.95
2023-05-03T00:53:25.832Z,3.55
2023-05-03T00:55:52.576Z,3.60
2023-05-03T01:01:33.853Z,3.90
2023-05-03T01:04:00.682Z,4.97
2023-05-03T01:06:27.849Z,4.10
2023-05-03T01:09:15.485Z,6.03
2023-05-03T01:11:42.124Z,5.68
2023-05-03T01:14:09.102Z,6.25
2023-05-03T01:16:36.000Z,5.47
2023-05-03T01:22:16.561Z,5.05
2023-05-03T01:24:43.299Z,4.70
2023-05-03T01:27:10.138Z,4.85
2023-05-03T01:29:37.068Z,3.80
2023-05-03T01:32:04.055Z,4.88
2023-05-03T01:34:30.818Z,4.28
2023-05-03T01:36:57.548Z,4.25
2023-05-03T01:42:52.284Z,3.83
2023-05-03T01:45:18.969Z,4.07
2023-05-03T01:48:04.779Z,4.25
2023-05-03T01:50:31.484Z,3.45
2023-05-03T01:52:58.158Z,4.03
2023-05-03T01:55:24.856Z,4.38
2023-05-03T02:01:40.437Z,4.20
2023-05-03T02:04:07.753Z,4.32
2023-05-03T02:06:36.119Z,4.25
2023-05-03T02:12:40.575Z,4.25
2023-05-03T02:15:07.328Z,4.70
2023-05-03T02:17:35.062Z,4.40
2023-05-03T02:20:01.959Z,4.32
2023-05-03T02:22:28.800Z,4.25
2023-05-03T02:24:55.583Z,4.30
2023-05-03T02:27:22.256Z,4.38
2023-05-03T02:29:48.933Z,4.35
2023-05-03T02:32:15.622Z,5.00
2023-05-03T02:34:44.490Z,5.20
2023-05-03T02:37:11.216Z,5.03
2023-05-03T02:43:06.545Z,5.07
2023-05-03T02:45:33.450Z,5.28
2023-05-03T02:51:16.068Z,4.60
2023-05-03T02:53:42.751Z,4.68
2023-05-03T02:56:09.961Z,4.45
2023-05-03T02:58:59.181Z,4.28
2023-05-03T03:01:27.138Z,4.95
2023-05-03T03:03:54.279Z,4.57
2023-05-03T03:06:21.065Z,4.97
2023-05-03T03:08:49.972Z,4.75
2023-05-03T03:11:16.737Z,4.43
2023-05-03T03:13:43.477Z,4.65
2023-05-03T03:16:10.321Z,4.32
2023-05-03T03:18:57.308Z,4.07
2023-05-03T03:21:28.949Z,4.75
2023-05-03T03:23:55.821Z,4.22
2023-05-03T03:26:22.551Z,4.40
2023-05-03T03:32:42.136Z,4.13
2023-05-03T03:35:14.100Z,3.83
2023-05-03T03:38:06.319Z,4.07
2023-05-03T03:40:37.023Z,4.47
2023-05-03T03:43:04.192Z,3.80
2023-05-03T03:45:30.832Z,4.88
2023-05-03T03:48:04.164Z,4.38
2023-05-03T03:50:31.492Z,5.03
2023-05-03T03:52:58.124Z,4.50
2023-05-03T03:55:24.906Z,4.53
2023-05-03T04:01:07.574Z,4.20
2023-05-03T04:03:34.649Z,4.38
2023-05-03T04:06:01.844Z,4.47
2023-05-03T04:11:43.738Z,5.20
2023-05-03T04:14:10.479Z,4.18
2023-05-03T04:16:37.266Z,4.63
2023-05-03T04:19:25.691Z,4.72
2023-05-03T04:21:52.442Z,4.53
2023-05-03T04:24:21.309Z,5.07
2023-05-03T04:26:51.272Z,4.90
2023-05-03T04:36:47.150Z,5.10
2023-05-03T04:42:24.637Z,4.88
2023-05-03T04:44:51.404Z,4.75
2023-05-03T04:47:19.184Z,5.22
2023-05-03T04:49:51.028Z,5.38
2023-05-03T04:52:17.799Z,5.57
2023-05-03T04:54:45.660Z,4.82
2023-05-03T04:57:12.838Z,5.82
2023-05-03T04:59:41.973Z,5.07
2023-05-03T05:02:09.380Z,4.78
2023-05-03T05:04:36.273Z,4.57
2023-05-03T05:07:03.079Z,4.57
2023-05-03T05:09:55.049Z,4.63
2023-05-03T05:12:21.799Z,4.95
2023-05-03T05:14:48.617Z,4.80
2023-05-03T05:17:15.630Z,4.47
2023-05-03T05:19:44.644Z,3.97
2023-05-03T05:22:11.358Z,5.25
2023-05-03T05:24:50.032Z,4.25
2023-05-03T05:27:17.391Z,4.32
2023-05-03T05:33:42.290Z,4.72
2023-05-03T05:36:10.384Z,4.70
2023-05-03T05:41:43.685Z,6.00
2023-05-03T05:44:16.785Z,4.93
2023-05-03T05:46:49.347Z,5.60
2023-05-03T05:52:07.840Z,4.45
2023-05-03T05:54:34.598Z,4.70
2023-05-03T05:57:01.620Z,5.05
2023-05-03T06:02:40.885Z,4.25
2023-05-03T06:05:09.424Z,4.32
2023-05-03T06:07:56.048Z,5.00
2023-05-03T06:10:22.800Z,4.57
2023-05-03T06:12:53.161Z,4.25
2023-05-03T06:15:23.571Z,5.03
2023-05-03T06:18:09.482Z,4.68
2023-05-03T06:20:36.412Z,4.65
2023-05-03T06:23:03.472Z,5.47
2023-05-03T06:25:30.381Z,4.65
2023-05-03T06:28:18.109Z,5.00
2023-05-03T06:31:21.002Z,4.88
2023-05-03T06:33:50.327Z,4.13
2023-05-03T06:36:17.168Z,4.80
2023-05-03T06:38:47.094Z,5.13
2023-05-03T06:41:14.048Z,4.97
2023-05-03T06:43:43.808Z,4.93
2023-05-03T06:46:13.331Z,4.90
2023-05-03T06:49:00.332Z,4.95
2023-05-03T06:51:32.315Z,4.70
2023-05-03T06:56:33.978Z,5.28
2023-05-03T07:02:15.708Z,5.60
2023-05-03T07:04:42.369Z,5.93
2023-05-03T07:07:09.424Z,5.22
2023-05-03T07:13:25.344Z,5.30
2023-05-03T07:15:52.115Z,5.18
2023-05-03T07:18:39.211Z,5.07
2023-05-03T07:21:12.949Z,6.35
2023-05-03T07:23:45.732Z,5.35
2023-05-03T07:26:12.681Z,5.28
2023-05-03T07:28:59.523Z,5.60
2023-05-03T07:34:22.225Z,5.20
2023-05-03T07:36:49.538Z,5.30
2023-05-03T07:43:08.683Z,5.78
2023-05-03T07:45:36.043Z,5.60
2023-05-03T07:48:06.586Z,6.22
2023-05-03T07:50:33.458Z,5.70
2023-05-03T07:53:00.793Z,6.18
2023-05-03T07:55:28.561Z,6.47
2023-05-03T08:01:04.191Z,5.82
2023-05-03T08:03:31.056Z,6.25
2023-05-03T08:05:59.132Z,6.88
2023-05-03T08:08:44.596Z,6.43
2023-05-03T08:11:11.762Z,6.28
2023-05-03T08:13:38.602Z,7.03
2023-05-03T08:16:06.582Z,6.60
2023-05-03T08:18:45.986Z,7.07
2023-05-03T08:21:13.513Z,6.97
2023-05-03T08:23:40.332Z,7.50
2023-05-03T08:26:09.374Z,7.10
2023-05-03T08:28:37.948Z,6.93
2023-05-03T08:31:05.090Z,6.38
2023-05-03T08:33:31.908Z,7.50
2023-05-03T08:35:58.753Z,6.88
2023-05-03T08:38:26.516Z,6.70
2023-05-03T08:40:53.167Z,7.45
2023-05-03T08:43:19.725Z,6.88
2023-05-03T08:45:46.366Z,6.82
2023-05-03T08:48:13.207Z,6.90
2023-05-03T08:50:42.413Z,7.25
2023-05-03T08:53:09.219Z,6.57
2023-05-03T08:55:35.953Z,6.25
2023-05-03T08:58:02.659Z,6.15
2023-05-03T09:00:32.309Z,6.00
2023-05-03T09:02:59.089Z,6.28
2023-05-03T09:05:26.595Z,6.25
2023-05-03T09:07:53.250Z,5.50
2023-05-03T09:10:19.841Z,6.65
2023-05-03T09:12:46.503Z,5.15
2023-05-03T09:15:13.098Z,5.10
2023-05-03T09:17:40.814Z,6.10
2023-05-03T09:20:09.057Z,5.70
2023-05-03T09:22:37.619Z,5.72
2023-05-03T09:25:04.605Z,6.00
2023-05-03T09:27:31.262Z,5.78
2023-05-03T09:29:57.935Z,5.57
2023-05-03T09:32:25.389Z,5.40
2023-05-03T09:34:52.121Z,5.13
2023-05-03T09:37:18.828Z,5.47
2023-05-03T09:39:45.590Z,5.90
2023-05-03T09:42:12.322Z,5.15
2023-05-03T09:44:38.957Z,5.40
2023-05-03T09:47:05.662Z,5.07
2023-05-03T09:49:33.292Z,5.68
2023-05-03T09:52:00.105Z,5.03
2023-05-03T09:54:26.738Z,5.68
2023-05-03T09:56:53.394Z,5.60
2023-05-03T09:59:20.940Z,5.07
2023-05-03T10:01:47.812Z,5.20
2023-05-03T10:04:14.543Z,5.40
2023-05-03T10:06:44.488Z,5.35
2023-05-03T10:09:14.327Z,4.50
2023-05-03T10:11:41.050Z,5.32
2023-05-03T10:14:07.763Z,4.97
2023-05-03T10:16:34.411Z,5.95
2023-05-03T10:19:01.077Z,4.57
2023-05-03T10:21:27.691Z,5.53
2023-05-03T10:23:54.355Z,4.88
2023-05-03T10:26:22.524Z,5.10
2023-05-03T10:28:50.364Z,4.68
2023-05-03T10:31:17.377Z,6.07
2023-05-03T10:33:44.222Z,5.40
2023-05-03T10:36:11.030Z,5.10
2023-05-03T10:38:37.968Z,4.93
2023-05-03T10:41:06.781Z,4.93
2023-05-03T10:43:33.503Z,4.82
2023-05-03T10:46:00.268Z,4.70
2023-05-03T10:48:28.584Z,5.35
2023-05-03T10:50:55.342Z,4.68
2023-05-03T10:53:21.989Z,4.45
2023-05-03T10:55:48.620Z,5.78
2023-05-03T10:58:15.472Z,5.38
2023-05-03T11:00:42.127Z,4.65
2023-05-03T11:03:09.771Z,5.35
2023-05-03T11:05:36.392Z,4.40
2023-05-03T11:08:04.449Z,4.60
2023-05-03T11:10:31.146Z,4.80
2023-05-03T11:15:50.203Z,5.75
2023-05-03T11:18:19.093Z,4.80
2023-05-03T11:23:32.789Z,4.85
2023-05-03T11:25:59.563Z,5.28
2023-05-03T11:28:49.708Z,5.90
2023-05-03T11:31:16.585Z,5.95
2023-05-03T11:33:43.501Z,5.40
2023-05-03T11:36:10.242Z,5.90
2023-05-03T11:38:57.989Z,6.03
2023-05-03T11:41:24.745Z,5.43
2023-05-03T11:44:00.565Z,5.45
2023-05-03T11:46:35.190Z,6.03
2023-05-03T11:49:03.645Z,5.85
2023-05-03T11:51:31.376Z,5.60
2023-05-03T11:53:58.190Z,6.68
2023-05-03T11:56:24.853Z,5.35
2023-05-03T11:58:52.970Z,5.38
2023-05-03T12:01:19.694Z,5.18
2023-05-03T12:03:49.474Z,5.65
2023-05-03T12:06:16.975Z,6.32
2023-05-03T12:08:47.033Z,5.22
2023-05-03T12:11:18.030Z,5.70
2023-05-03T12:13:47.573Z,8.05
2023-05-03T12:16:19.131Z,8.48
2023-05-03T12:23:45.932Z,6.15
2023-05-03T12:26:14.317Z,7.70
2023-05-03T12:31:29.115Z,7.18
2023-05-03T12:34:19.959Z,7.22
2023-05-03T12:36:43.940Z,7.97
2023-05-03T12:39:16.329Z,6.70
2023-05-03T12:42:06.091Z,7.90
2023-05-03T12:44:30.013Z,6.60
2023-05-03T12:47:00.788Z,8.10
2023-05-03T12:49:28.756Z,8.73
2023-05-03T12:52:18.595Z,8.38
2023-05-03T12:54:48.892Z,6.10
2023-05-03T12:57:16.513Z,7.78
2023-05-03T12:59:52.564Z,8.80
2023-05-03T13:03:19.484Z,6.97
2023-05-03T13:05:11.857Z,8.25
2023-05-03T13:07:43.121Z,8.93
2023-05-03T13:12:45.737Z,9.30
2023-05-03T13:15:12.347Z,8.02
2023-05-03T13:17:39.296Z,6.72
2023-05-03T13:20:07.208Z,9.25
2023-05-03T13:22:34.029Z,8.93
2023-05-03T13:25:00.641Z,8.80
2023-05-03T13:27:27.671Z,6.03
2023-05-03T13:29:54.415Z,8.32
2023-05-03T13:32:21.862Z,8.88
2023-05-03T13:34:48.745Z,8.80
2023-05-03T13:37:18.484Z,8.88
2023-05-03T13:39:47.985Z,6.40
2023-05-03T13:42:14.648Z,7.63
2023-05-03T13:44:42.494Z,9.07
2023-05-03T13:47:09.158Z,8.60
2023-05-03T13:49:36.204Z,9.27
2023-05-03T13:52:04.085Z,8.60
2023-05-03T13:54:32.207Z,8.70
2023-05-03T13:56:59.249Z,7.45
2023-05-03T13:59:26.001Z,6.55
2023-05-03T14:01:52.769Z,8.48
2023-05-03T14:04:19.904Z,8.43
2023-05-03T14:06:46.907Z,8.07
2023-05-03T14:09:16.964Z,8.85
2023-05-03T14:11:43.822Z,8.13
2023-05-03T14:14:10.641Z,7.32
2023-05-03T14:16:41.449Z,8.15
2023-05-03T14:19:10.723Z,7.18
2023-05-03T14:21:38.142Z,7.97
2023-05-03T14:24:04.886Z,8.02
2023-05-03T14:26:33.870Z,8.88
2023-05-03T14:29:01.645Z,8.13
2023-05-03T14:31:28.381Z,7.70
2023-05-03T14:33:55.248Z,8.57
2023-05-03T14:36:22.074Z,6.25
2023-05-03T14:38:48.820Z,6.85
2023-05-03T14:41:15.632Z,7.22
2023-05-03T14:43:42.361Z,6.80
2023-05-03T14:46:09.875Z,6.32
2023-05-03T14:48:38.166Z,6.03
2023-05-03T14:51:04.962Z,6.78
2023-05-03T14:53:31.810Z,6.60
2023-05-03T14:55:58.425Z,5.55
2023-05-03T14:58:25.152Z,5.40
2023-05-03T15:00:51.861Z,5.80
2023-05-03T15:03:18.680Z,6.75
2023-05-03T15:05:45.613Z,5.90
2023-05-03T15:08:13.270Z,5.53
2023-05-03T15:10:39.933Z,5.30
2023-05-03T15:13:07.266Z,5.20
2023-05-03T15:15:34.025Z,5.05
2023-05-03T15:18:01.128Z,5.07
2023-05-03T15:20:27.789Z,5.40
2023-05-03T15:22:54.461Z,5.43
2023-05-03T15:25:21.079Z,4.45
2023-05-03T15:27:48.692Z,4.85
2023-05-03T15:30:17.294Z,5.00
2023-05-03T15:32:44.464Z,5.43
2023-05-03T15:35:11.946Z,5.75
2023-05-03T15:37:41.965Z,5.13
2023-05-03T15:40:09.405Z,5.72
2023-05-03T15:42:36.143Z,5.47
2023-05-03T15:45:03.005Z,5.40
2023-05-03T15:47:32.602Z,4.40
2023-05-03T15:49:59.317Z,4.60
2023-05-03T15:52:26.073Z,4.57
2023-05-03T15:54:54.366Z,4.60
2023-05-03T15:57:21.477Z,5.40
2023-05-03T15:59:48.825Z,4.65
2023-05-03T16:02:20.257Z,4.93
2023-05-03T16:04:48.357Z,4.45
2023-05-03T16:07:15.857Z,4.70
2023-05-03T16:09:42.501Z,4.45
2023-05-03T16:12:09.116Z,4.47
2023-05-03T16:14:35.757Z,4.43
2023-05-03T16:17:02.498Z,4.60
2023-05-03T16:19:29.507Z,4.50
2023-05-03T16:21:56.769Z,4.82
2023-05-03T16:24:23.426Z,4.32
2023-05-03T16:26:52.887Z,4.57
2023-05-03T16:29:22.002Z,5.03
2023-05-03T16:31:51.832Z,5.20
2023-05-03T16:34:18.435Z,5.40
2023-05-03T16:36:45.296Z,6.13
2023-05-03T16:39:11.983Z,5.57
2023-05-03T16:41:38.621Z,5.30
2023-05-03T16:44:05.230Z,5.93
2023-05-03T16:46:31.851Z,5.90
2023-05-03T16:48:58.678Z,5.75
2023-05-03T16:51:25.412Z,5.68
2023-05-03T16:53:52.133Z,5.05
2023-05-03T16:56:18.800Z,6.05
2023-05-03T16:58:45.426Z,5.95
2023-05-03T17:01:12.162Z,5.80
2023-05-03T17:03:38.955Z,5.60
2023-05-03T17:06:05.853Z,5.85
2023-05-03T17:08:32.900Z,5.88
2023-05-03T17:11:03.281Z,4.80
2023-05-03T17:13:36.217Z,5.47
2023-05-03T17:16:03.102Z,6.78
2023-05-03T17:18:29.735Z,6.97
2023-05-03T17:20:56.658Z,6.53
2023-05-03T17:23:23.278Z,6.45
2023-05-03T17:25:50.048Z,6.70
2023-05-03T17:28:16.702Z,6.40
2023-05-03T17:30:43.323Z,6.55
2023-05-03T17:33:10.000Z,7.07
2023-05-03T17:35:36.785Z,5.93
2023-05-03T17:38:05.318Z,6.85
2023-05-03T17:40:32.161Z,6.90
2023-05-03T17:42:58.762Z,7.13
2023-05-03T17:45:26.324Z,6.55
2023-05-03T17:47:53.113Z,7.80
2023-05-03T17:50:19.767Z,6.60
2023-05-03T17:52:46.847Z,6.70
2023-05-03T17:55:13.679Z,5.85
2023-05-03T17:57:41.008Z,7.38
2023-05-03T18:00:11.119Z,5.78
2023-05-03T18:02:37.817Z,5.78
2023-05-03T18:05:04.488Z,5.63
2023-05-03T18:07:31.113Z,5.20
2023-05-03T18:09:59.581Z,5.28
2023-05-03T18:12:26.280Z,5.45
2023-05-03T18:14:59.362Z,5.15
2023-05-03T18:17:26.152Z,4.88
2023-05-03T18:19:52.776Z,4.57
2023-05-03T18:22:19.440Z,4.72
2023-05-03T18:24:46.000Z,5.15
2023-05-03T18:27:12.889Z,5.55
2023-05-03T18:29:40.482Z,4.90
2023-05-03T18:32:07.805Z,5.10
2023-05-03T18:34:37.326Z,4.72
2023-05-03T18:37:04.726Z,4.70
2023-05-03T18:39:31.342Z,5.03
2023-05-03T18:41:59.001Z,4.97
2023-05-03T18:44:25.913Z,5.25
2023-05-03T18:46:52.613Z,5.35
2023-05-03T18:49:19.304Z,5.13
2023-05-03T18:51:45.958Z,5.20
2023-05-03T18:54:12.788Z,5.10
2023-05-03T18:56:39.456Z,4.75
2023-05-03T18:59:06.123Z,5.32
2023-05-03T19:01:33.601Z,3.92
2023-05-03T19:04:00.384Z,4.63
2023-05-03T19:06:27.337Z,4.82
2023-05-03T19:08:54.487Z,4.80
2023-05-03T19:11:25.154Z,5.38
2023-05-03T19:13:52.044Z,4.80
2023-05-03T19:16:19.445Z,4.80
2023-05-03T19:18:46.256Z,5.22
2023-05-03T19:21:12.968Z,5.20
2023-05-03T19:23:39.603Z,5.13
2023-05-03T19:26:06.421Z,4.82
2023-05-03T19:28:33.264Z,5.68
2023-05-03T19:30:59.858Z,4.38
2023-05-03T19:33:26.561Z,5.28
2023-05-03T19:35:54.082Z,4.85
2023-05-03T19:38:22.089Z,4.30
2023-05-03T19:40:48.763Z,4.45
2023-05-03T19:43:15.394Z,4.43
2023-05-03T19:45:42.119Z,4.40
2023-05-03T19:48:10.303Z,5.88
2023-05-03T19:50:37.016Z,4.35
2023-05-03T19:53:03.821Z,4.30
2023-05-03T19:55:30.429Z,5.25
2023-05-03T19:57:57.061Z,6.45
2023-05-03T20:00:23.693Z,5.03
2023-05-03T20:02:50.656Z,4.57
2023-05-03T20:05:17.358Z,5.95
2023-05-03T20:07:45.009Z,4.57
2023-05-03T20:10:11.591Z,4.55
2023-05-03T20:12:38.303Z,4.55
2023-05-03T20:15:04.949Z,4.68
2023-05-03T20:17:31.674Z,4.47
2023-05-03T20:19:58.337Z,4.93
2023-05-03T20:22:24.953Z,4.22
2023-05-03T20:24:52.448Z,4.78
2023-05-03T20:27:19.246Z,5.20
2023-05-03T20:29:45.908Z,4.38
2023-05-03T20:32:12.551Z,4.90
2023-05-03T20:34:40.218Z,4.70
2023-05-03T20:37:06.856Z,4.43
2023-05-03T20:39:35.221Z,4.95
2023-05-03T20:42:02.381Z,4.90
2023-05-03T20:44:29.006Z,4.95
2023-05-03T20:46:55.842Z,5.65
2023-05-03T20:49:22.464Z,5.18
2023-05-03T20:51:49.076Z,5.43
2023-05-03T20:54:15.715Z,4.82
2023-05-03T20:56:42.319Z,4.85
2023-05-03T20:59:08.904Z,5.10
2023-05-03T21:01:35.589Z,5.07
2023-05-03T21:04:03.993Z,5.05
2023-05-03T21:06:30.626Z,5.15
2023-05-03T21:08:57.217Z,5.22
2023-05-03T21:11:23.853Z,5.57
2023-05-03T21:13:50.809Z,4.55
2023-05-03T21:16:17.468Z,4.85
2023-05-03T21:18:44.055Z,4.30
2023-05-03T21:21:10.655Z,4.03
2023-05-03T21:23:37.209Z,5.88
2023-05-03T21:26:03.886Z,4.22
2023-05-03T21:28:32.288Z,4.40
2023-05-03T21:30:59.891Z,5.18
2023-05-03T21:33:26.471Z,4.95
2023-05-03T21:35:53.098Z,5.38
2023-05-03T21:38:19.787Z,4.53
2023-05-03T21:40:49.590Z,4.70
2023-05-03T21:43:16.812Z,4.55
2023-05-03T21:45:44.286Z,5.47
2023-05-03T21:48:11.037Z,5.20
2023-05-03T21:50:38.133Z,5.18
2023-05-03T21:53:04.859Z,5.22
2023-05-03T21:55:31.490Z,4.82
2023-05-03T21:57:58.081Z,4.93
2023-05-03T22:00:25.136Z,4.93
2023-05-03T22:02:52.244Z,5.45
2023-05-03T22:05:19.380Z,4.88
2023-05-03T22:07:46.302Z,5.30
2023-05-03T22:10:13.065Z,5.50
2023-05-03T22:12:39.935Z,4.53
2023-05-03T22:15:08.212Z,5.63
2023-05-03T22:17:34.873Z,5.60
2023-05-03T22:20:01.903Z,5.25
2023-05-03T22:22:28.538Z,5.40
2023-05-03T22:24:55.265Z,5.35
2023-05-03T22:27:21.842Z,5.35
2023-05-03T22:29:48.430Z,5.00
2023-05-03T22:32:15.184Z,5.20
2023-05-03T22:34:42.065Z,5.13
2023-05-03T22:37:08.666Z,5.72
2023-05-03T22:39:35.306Z,5.50
2023-05-03T22:42:01.878Z,6.00
2023-05-03T22:44:28.490Z,5.45
2023-05-03T22:46:55.069Z,5.78
2023-05-03T22:49:21.760Z,6.05
2023-05-03T22:51:51.872Z,6.38
2023-05-03T22:54:18.481Z,6.25
2023-05-03T22:56:45.108Z,6.35
2023-05-03T22:59:12.122Z,6.20
2023-05-03T23:01:39.116Z,5.70
2023-05-03T23:04:05.865Z,5.22
2023-05-03T23:06:32.515Z,5.53
2023-05-03T23:09:00.968Z,6.75
2023-05-03T23:11:27.549Z,5.38
2023-05-03T23:13:54.215Z,5.45
2023-05-03T23:16:21.410Z,6.63
2023-05-03T23:18:48.322Z,5.93
2023-05-03T23:21:14.887Z,7.55
2023-05-03T23:23:42.077Z,6.10
2023-05-03T23:26:09.104Z,5.97
2023-05-03T23:28:36.716Z,5.88
2023-05-03T23:31:04.719Z,5.97
2023-05-03T23:33:31.875Z,5.15
2023-05-03T23:35:58.538Z,6.43
2023-05-03T23:38:25.227Z,6.40
2023-05-03T23:40:51.854Z,6.18
2023-05-03T23:43:18.459Z,6.10
2023-05-03T23:45:45.077Z,5.65
2023-05-03T23:48:11.924Z,5.97
2023-05-03T23:50:38.551Z,5.75
2023-05-03T23:53:05.336Z,6.10
2023-05-03T23:55:31.936Z,6.45
2023-05-03T23:57:58.715Z,7.18
